Lancaster, OH (43130)

3:37 AM EDT on September 20, 2017 (GMT -0400)
W Wheeling St Near N George St | | Change Station

Elev 835 ft 39.71 °N, 82.61 °W | Updated 7 seconds ago

Overcast
Overcast
64.6 °F
Feels Like 64.6 °F
N
0.0
Wind Variable Wind from SSW
Gusts 0.0 mph

Today
High -- | Low -- °F
--% Chance of Precip.
Yesterday
High -- | Low -- °F
Precip. -- in
Pressure 29.98 in
Visibility 7.0 miles
Clouds Few 6000 ft
Overcast 7500 ft
Dew Point 63 °F
Humidity 96%
Rainfall 0.00 in
Snow Depth Not available.
7:16 AM 7:30 PM
New Moon, 0% visible
SPECI KLHQ 200715Z AUTO 19003KT 7SM FEW060 OVC075 18/18 A2998 RMK AO2 T01830183
Pressure 29.98 in
Visibility 7.0 miles
Clouds Few 6000 ft
Overcast 7500 ft
Dew Point 63 °F
Humidity 96%
Rainfall 0.00 in
Snow Depth Not available.
7:16 AM 7:30 PM
New Moon, 0% visible
SPECI KLHQ 200715Z AUTO 19003KT 7SM FEW060 OVC075 18/18 A2998 RMK AO2 T01830183

Get Severe Weather Alerts

Thanks for signing up!

Be on the lookout for a verification email in your inbox.

You'll start receiving the daily forecast at 6 AM.

×

10-Day Weather Forecast

Almanac

Astronomy

Sep. 20, 2017 Rise Set
Actual Time
Civil Twilight
Nautical Twilight
Astronomical Twilight
Moon
Length of Visible Light
Length of Day
Tomorrow will be .
, % of the Moon is Illuminated

Today's Extremes

State Highs State Lows

Community

WunderPhotos

Category 6

Welcome to Category 6. This is the collective home for Weather Underground's featured writeups by Dr. Jeff Masters (right), Bob Henson (left), Chris Burt, and other regular contributors.

Nearby

Air Quality

  Air Quality AQ Index Pollutant
Not available.

Snow Depth

Station Depth Elevation

Earthquake Activity

City Distance Mag. Time & Date
Minimum magnitude displayed is 2.5.

Coastal Water Temperatures

Place Temperature

Stations

Nearby Weather Stations

Station Location Temp. Windchill Dew Point Humidity Wind Precip. Elev Updated Type
                   

Watches & Warnings

There are currently no watches in effect.